首页
METAR-TAF:

METAR-TAF

机场 :

皮阿尔科国际机场

西班牙港, 特立尼达岛, 千里達及托巴哥

纬度: 10-37N, 经度: 061-21W, 海拔: 12米

当前天气观测

该预报发布于38分钟前的14:00 UTC
风速8节,风向
温度 31°C
湿度 66%
气压 1013 hPa
能见度10公里或以上
多云层高于2200英尺

METAR: TTPP 231400Z 10008KT 9999 BKN022 31/24 Q1013 NOSIG

时间: 10:38 (14:38 UTC)

预报

该预报发布于4小时和38分钟前的10:00 UTC
预报有效从23日的 12点(UTC)到 24日的 12点(UTC)
风速10节,风向
能见度10公里或以上
散云层高于2000英尺
短暂存在
从 23日的 16点(UTC)到 23日的 21点(UTC)
风速10节,风向,有时为25节阵风
能見度: 4000
少量云层高于1000英尺, 积雨云.
散云层高于1600英尺
雷暴, 雨
成为
从 23日的 22点(UTC)到 24日的 00点(UTC)
风速节,风向
少量云层高于1600英尺

TAF: TTPP 231000Z 2312/2412 10010KT 9999 SCT020 TEMPO 2316/2321 10010G25KT 4000 TSRA FEW010CB SCT016 BECMG 2322/2400 00000KT FEW016

超过4000个机场的气象观测和天气预报(METAR&TAF报告)。

可查询的气象台以黄色和红色小点在地图上表示。

将鼠标移到小点上方,可查看气象台名称。

然后点击查看天气观测和预报。

如需切换地图:点击带黑十字的绿色按钮放大地图;点击带横线的绿色按钮缩小地图;或者点击绿色箭头查看邻近地区的地图。


METAR-TAF: